GJS4735 KDEN-KSTL
Flight info
| Callsign | GJS4735 |
|---|---|
| Flight time | 1h 32m |
| Altitude | 37000 |
| Route | EXTAN7 SHAYK ANX KAYLA3 |
| Aircraft | CRJ7/M-SDFGIRWY/S |
Departure
| Time | 2026-05-07 02:23 |
|---|---|
| Airport | Denver International Airport (KDEN) |
Arrival
| Time | 2026-05-07 03:56 |
|---|---|
| Airport | St. Louis Lambert International Airport (KSTL) |
| Time | Latitude | Longitude | Altitude | Speed | Heading |
|---|---|---|---|---|---|
| 2026-05-07 01:09 | 39.85802 | -104.66792 | 5378 ft | 0 kts | 0° |
| 2026-05-07 02:14 | 39.85798 | -104.66792 | 5387 ft | 3 kts | 0° |
| 2026-05-07 02:14 | 39.85772 | -104.66794 | 5376 ft | 4 kts | 2° |
| 2026-05-07 02:14 | 39.85751 | -104.66794 | 5377 ft | 4 kts | 4° |
| 2026-05-07 02:14 | 39.85729 | -104.66797 | 5377 ft | 0 kts | 5° |
| 2026-05-07 02:15 | 39.85728 | -104.66797 | 5377 ft | 0 kts | 5° |
| 2026-05-07 02:17 | 39.85731 | -104.66796 | 5377 ft | 1 kts | 40° |
| 2026-05-07 02:17 | 39.85727 | -104.66763 | 5376 ft | 4 kts | 130° |
| 2026-05-07 02:17 | 39.85704 | -104.66739 | 5377 ft | 7 kts | 141° |
| 2026-05-07 02:18 | 39.85662 | -104.66673 | 5379 ft | 12 kts | 106° |
| 2026-05-07 02:18 | 39.85663 | -104.66562 | 5375 ft | 12 kts | 71° |
| 2026-05-07 02:18 | 39.85679 | -104.66449 | 5380 ft | 13 kts | 90° |
| 2026-05-07 02:18 | 39.85679 | -104.66323 | 5386 ft | 14 kts | 90° |
| 2026-05-07 02:19 | 39.85715 | -104.66239 | 5385 ft | 11 kts | 16° |
| 2026-05-07 02:19 | 39.85811 | -104.66233 | 5386 ft | 17 kts | 0° |
| 2026-05-07 02:19 | 39.85941 | -104.66232 | 5386 ft | 19 kts | 0° |
| 2026-05-07 02:19 | 39.86079 | -104.66229 | 5382 ft | 21 kts | 0° |
| 2026-05-07 02:20 | 39.86230 | -104.66228 | 5380 ft | 22 kts | 0° |
| 2026-05-07 02:20 | 39.86386 | -104.66226 | 5378 ft | 23 kts | 1° |
| 2026-05-07 02:20 | 39.86546 | -104.66224 | 5378 ft | 23 kts | 0° |
| 2026-05-07 02:20 | 39.86711 | -104.66222 | 5373 ft | 24 kts | 0° |
| 2026-05-07 02:21 | 39.86885 | -104.66221 | 5368 ft | 20 kts | 0° |
| 2026-05-07 02:21 | 39.87028 | -104.66219 | 5364 ft | 21 kts | 0° |
| 2026-05-07 02:21 | 39.87183 | -104.66217 | 5364 ft | 23 kts | 0° |
| 2026-05-07 02:21 | 39.87352 | -104.66214 | 5360 ft | 25 kts | 0° |
| 2026-05-07 02:22 | 39.87516 | -104.66212 | 5359 ft | 23 kts | 0° |
| 2026-05-07 02:22 | 39.87653 | -104.66211 | 5360 ft | 14 kts | 0° |
| 2026-05-07 02:22 | 39.87743 | -104.66208 | 5360 ft | 6 kts | 21° |
| 2026-05-07 02:22 | 39.87755 | -104.66155 | 5358 ft | 10 kts | 89° |
| 2026-05-07 02:23 | 39.87752 | -104.65769 | 5353 ft | 79 kts | 90° |
| 2026-05-07 02:23 | 39.87744 | -104.64756 | 5342 ft | 142 kts | 91° |
| 2026-05-07 02:23 | 39.87743 | -104.63297 | 5561 ft | 173 kts | 93° |
| 2026-05-07 02:23 | 39.87683 | -104.61689 | 6203 ft | 181 kts | 104° |
| 2026-05-07 02:24 | 39.87236 | -104.60117 | 6868 ft | 194 kts | 115° |
| 2026-05-07 02:24 | 39.86670 | -104.58390 | 7218 ft | 220 kts | 114° |
| 2026-05-07 02:24 | 39.86036 | -104.56500 | 7787 ft | 233 kts | 114° |
| 2026-05-07 02:24 | 39.85380 | -104.54498 | 8276 ft | 253 kts | 113° |
| 2026-05-07 02:25 | 39.84737 | -104.52273 | 8753 ft | 271 kts | 106° |
| 2026-05-07 02:25 | 39.84272 | -104.49822 | 9282 ft | 287 kts | 101° |
| 2026-05-07 02:25 | 39.83837 | -104.47249 | 10006 ft | 294 kts | 101° |
| 2026-05-07 02:25 | 39.83354 | -104.44661 | 10716 ft | 299 kts | 102° |
| 2026-05-07 02:26 | 39.82801 | -104.41963 | 11077 ft | 321 kts | 103° |
| 2026-05-07 02:26 | 39.82201 | -104.39063 | 11404 ft | 342 kts | 102° |
| 2026-05-07 02:26 | 39.81566 | -104.36004 | 11813 ft | 358 kts | 102° |
| 2026-05-07 02:26 | 39.80935 | -104.32834 | 12396 ft | 367 kts | 100° |
| 2026-05-07 02:27 | 39.80440 | -104.29566 | 13135 ft | 370 kts | 96° |
| 2026-05-07 02:27 | 39.80070 | -104.26242 | 13860 ft | 373 kts | 93° |
| 2026-05-07 02:27 | 39.79739 | -104.22883 | 14543 ft | 376 kts | 93° |
| 2026-05-07 02:27 | 39.79409 | -104.19495 | 15240 ft | 378 kts | 93° |
| 2026-05-07 02:28 | 39.79044 | -104.16102 | 15933 ft | 380 kts | 93° |
| 2026-05-07 02:28 | 39.78666 | -104.12688 | 16629 ft | 382 kts | 93° |
| 2026-05-07 02:28 | 39.78298 | -104.09265 | 17309 ft | 384 kts | 92° |
| 2026-05-07 02:28 | 39.77930 | -104.05823 | 17977 ft | 386 kts | 92° |
| 2026-05-07 02:29 | 39.77558 | -104.02357 | 18605 ft | 388 kts | 92° |
| 2026-05-07 02:29 | 39.77185 | -103.98870 | 19135 ft | 391 kts | 92° |
| 2026-05-07 02:29 | 39.76811 | -103.95356 | 19652 ft | 394 kts | 92° |
| 2026-05-07 02:29 | 39.76416 | -103.91824 | 20162 ft | 397 kts | 93° |
| 2026-05-07 02:30 | 39.75970 | -103.88275 | 20650 ft | 401 kts | 94° |
| 2026-05-07 02:30 | 39.75512 | -103.84697 | 21144 ft | 404 kts | 93° |
| 2026-05-07 02:30 | 39.75063 | -103.81074 | 21613 ft | 407 kts | 93° |
| 2026-05-07 02:30 | 39.74607 | -103.77430 | 22071 ft | 410 kts | 93° |
| 2026-05-07 02:31 | 39.74192 | -103.73762 | 22520 ft | 411 kts | 92° |
| 2026-05-07 02:31 | 39.73853 | -103.70062 | 22968 ft | 413 kts | 90° |
| 2026-05-07 02:31 | 39.73574 | -103.66338 | 23404 ft | 415 kts | 89° |
| 2026-05-07 02:31 | 39.73289 | -103.62594 | 23812 ft | 418 kts | 90° |
| 2026-05-07 02:32 | 39.72998 | -103.58898 | 24151 ft | 420 kts | 90° |
| 2026-05-07 02:32 | 39.72690 | -103.55063 | 24502 ft | 422 kts | 90° |
| 2026-05-07 02:32 | 39.72383 | -103.51261 | 24845 ft | 424 kts | 90° |
| 2026-05-07 02:32 | 39.72078 | -103.47439 | 25199 ft | 426 kts | 90° |
| 2026-05-07 02:33 | 39.71770 | -103.43602 | 25512 ft | 429 kts | 90° |
| 2026-05-07 02:33 | 39.71458 | -103.39737 | 25825 ft | 431 kts | 90° |
| 2026-05-07 02:33 | 39.71147 | -103.35915 | 26127 ft | 433 kts | 90° |
| 2026-05-07 02:33 | 39.70825 | -103.31974 | 26429 ft | 435 kts | 90° |
| 2026-05-07 02:34 | 39.70508 | -103.28064 | 26752 ft | 435 kts | 90° |
| 2026-05-07 02:34 | 39.70191 | -103.24200 | 27038 ft | 437 kts | 90° |
| 2026-05-07 02:34 | 39.69866 | -103.20268 | 27317 ft | 439 kts | 90° |
| 2026-05-07 02:34 | 39.69533 | -103.16267 | 27588 ft | 441 kts | 90° |
| 2026-05-07 02:35 | 39.69205 | -103.12359 | 27868 ft | 443 kts | 90° |
| 2026-05-07 02:35 | 39.68874 | -103.08377 | 28114 ft | 445 kts | 90° |
| 2026-05-07 02:35 | 39.68539 | -103.04368 | 28332 ft | 447 kts | 90° |
| 2026-05-07 02:35 | 39.68201 | -103.00359 | 28661 ft | 447 kts | 90° |
| 2026-05-07 02:36 | 39.67861 | -102.96355 | 28979 ft | 446 kts | 90° |
| 2026-05-07 02:36 | 39.67521 | -102.92358 | 29304 ft | 446 kts | 90° |
| 2026-05-07 02:36 | 39.67179 | -102.88363 | 29625 ft | 445 kts | 90° |
| 2026-05-07 02:36 | 39.66839 | -102.84373 | 29941 ft | 445 kts | 90° |
| 2026-05-07 02:37 | 39.66497 | -102.80393 | 30244 ft | 444 kts | 90° |
| 2026-05-07 02:37 | 39.66155 | -102.76408 | 30526 ft | 444 kts | 90° |
| 2026-05-07 02:37 | 39.65813 | -102.72432 | 30766 ft | 443 kts | 90° |
| 2026-05-07 02:37 | 39.65468 | -102.68463 | 31001 ft | 443 kts | 90° |
| 2026-05-07 02:38 | 39.65120 | -102.64477 | 31220 ft | 443 kts | 90° |
| 2026-05-07 02:38 | 39.64772 | -102.60511 | 31451 ft | 443 kts | 90° |
| 2026-05-07 02:38 | 39.64422 | -102.56546 | 31667 ft | 443 kts | 90° |
| 2026-05-07 02:38 | 39.64071 | -102.52573 | 31876 ft | 443 kts | 90° |
| 2026-05-07 02:39 | 39.63719 | -102.48611 | 32080 ft | 443 kts | 91° |
| 2026-05-07 02:39 | 39.63365 | -102.44640 | 32286 ft | 443 kts | 91° |
| 2026-05-07 02:39 | 39.63011 | -102.40678 | 32530 ft | 442 kts | 91° |
| 2026-05-07 02:39 | 39.62655 | -102.36710 | 32724 ft | 443 kts | 91° |
| 2026-05-07 02:40 | 39.62301 | -102.32768 | 32924 ft | 442 kts | 91° |
| 2026-05-07 02:40 | 39.62063 | -102.30137 | 33051 ft | 443 kts | 91° |
| 2026-05-07 02:40 | 39.61704 | -102.26180 | 33253 ft | 442 kts | 91° |
| 2026-05-07 02:40 | 39.61341 | -102.22214 | 33462 ft | 442 kts | 91° |
| 2026-05-07 02:41 | 39.60980 | -102.18254 | 33634 ft | 442 kts | 92° |
| 2026-05-07 02:41 | 39.60620 | -102.14300 | 33828 ft | 442 kts | 92° |
| 2026-05-07 02:41 | 39.60257 | -102.10354 | 34010 ft | 442 kts | 92° |
| 2026-05-07 02:41 | 39.59890 | -102.06420 | 34179 ft | 442 kts | 92° |
| 2026-05-07 02:42 | 39.59522 | -102.02449 | 34292 ft | 444 kts | 92° |
| 2026-05-07 02:42 | 39.59191 | -101.98472 | 34370 ft | 445 kts | 91° |
| 2026-05-07 02:42 | 39.58878 | -101.94530 | 34496 ft | 445 kts | 91° |
| 2026-05-07 02:42 | 39.58562 | -101.90536 | 34598 ft | 447 kts | 91° |
| 2026-05-07 02:43 | 39.58245 | -101.86524 | 34711 ft | 448 kts | 92° |
| 2026-05-07 02:43 | 39.57927 | -101.82510 | 34838 ft | 448 kts | 92° |
| 2026-05-07 02:43 | 39.57605 | -101.78485 | 34939 ft | 449 kts | 92° |
| 2026-05-07 02:43 | 39.57280 | -101.74450 | 35059 ft | 450 kts | 92° |
| 2026-05-07 02:44 | 39.56955 | -101.70416 | 35183 ft | 451 kts | 92° |
| 2026-05-07 02:44 | 39.56627 | -101.66365 | 35298 ft | 453 kts | 92° |
| 2026-05-07 02:44 | 39.55965 | -101.58229 | 35470 ft | 456 kts | 93° |
| 2026-05-07 02:45 | 39.55626 | -101.54134 | 35587 ft | 457 kts | 93° |
| 2026-05-07 02:45 | 39.55286 | -101.50047 | 35714 ft | 457 kts | 93° |
| 2026-05-07 02:45 | 39.54610 | -101.41847 | 35935 ft | 459 kts | 92° |
| 2026-05-07 02:46 | 39.54380 | -101.37728 | 36044 ft | 458 kts | 89° |
| 2026-05-07 02:46 | 39.54278 | -101.33600 | 36139 ft | 458 kts | 88° |
| 2026-05-07 02:46 | 39.54208 | -101.29470 | 36268 ft | 459 kts | 88° |
| 2026-05-07 02:46 | 39.54130 | -101.25369 | 36290 ft | 462 kts | 89° |
| 2026-05-07 02:47 | 39.53998 | -101.21143 | 36392 ft | 463 kts | 90° |
| 2026-05-07 02:47 | 39.53867 | -101.17034 | 36482 ft | 464 kts | 90° |
| 2026-05-07 02:47 | 39.53731 | -101.12861 | 36602 ft | 464 kts | 90° |
| 2026-05-07 02:47 | 39.53594 | -101.08673 | 36685 ft | 466 kts | 90° |
| 2026-05-07 02:48 | 39.53454 | -101.04490 | 36791 ft | 466 kts | 90° |
| 2026-05-07 02:48 | 39.53312 | -101.00289 | 36876 ft | 467 kts | 90° |
| 2026-05-07 02:48 | 39.53168 | -100.96096 | 37016 ft | 466 kts | 90° |
| 2026-05-07 02:48 | 39.53002 | -100.91893 | 37102 ft | 467 kts | 90° |
| 2026-05-07 02:49 | 39.52692 | -100.83448 | 37156 ft | 472 kts | 91° |
| 2026-05-07 02:49 | 39.52381 | -100.74911 | 37160 ft | 476 kts | 91° |
| 2026-05-07 02:50 | 39.52063 | -100.66294 | 37174 ft | 481 kts | 91° |
| 2026-05-07 02:50 | 39.51737 | -100.57593 | 37172 ft | 486 kts | 91° |
| 2026-05-07 02:51 | 39.51409 | -100.48796 | 37167 ft | 492 kts | 92° |
| 2026-05-07 02:51 | 39.51057 | -100.39920 | 37173 ft | 496 kts | 92° |
| 2026-05-07 02:52 | 39.50705 | -100.30959 | 37166 ft | 500 kts | 92° |
| 2026-05-07 02:52 | 39.50343 | -100.21920 | 37173 ft | 504 kts | 92° |
| 2026-05-07 02:53 | 39.49972 | -100.12814 | 37169 ft | 508 kts | 92° |
| 2026-05-07 02:53 | 39.49584 | -100.03681 | 37162 ft | 509 kts | 92° |
| 2026-05-07 02:54 | 39.49193 | -99.94535 | 37159 ft | 509 kts | 92° |
| 2026-05-07 02:54 | 39.48799 | -99.85381 | 37157 ft | 510 kts | 92° |
| 2026-05-07 02:55 | 39.48396 | -99.76211 | 37158 ft | 510 kts | 93° |
| 2026-05-07 02:55 | 39.47978 | -99.67035 | 37157 ft | 511 kts | 93° |
| 2026-05-07 02:56 | 39.47558 | -99.57847 | 37160 ft | 512 kts | 93° |
| 2026-05-07 02:56 | 39.47134 | -99.48711 | 37156 ft | 512 kts | 93° |
| 2026-05-07 02:57 | 39.46700 | -99.39502 | 37163 ft | 513 kts | 94° |
| 2026-05-07 02:57 | 39.46251 | -99.30276 | 37154 ft | 514 kts | 94° |
| 2026-05-07 02:58 | 39.45799 | -99.21037 | 37153 ft | 515 kts | 94° |
| 2026-05-07 02:58 | 39.45341 | -99.11791 | 37154 ft | 516 kts | 94° |
| 2026-05-07 02:59 | 39.44879 | -99.02527 | 37137 ft | 516 kts | 95° |
| 2026-05-07 02:59 | 39.44390 | -98.93252 | 37144 ft | 517 kts | 95° |
| 2026-05-07 03:00 | 39.43904 | -98.83960 | 37149 ft | 518 kts | 95° |
| 2026-05-07 03:00 | 39.43415 | -98.74641 | 37148 ft | 519 kts | 95° |
| 2026-05-07 03:01 | 39.42915 | -98.65320 | 37155 ft | 520 kts | 95° |
| 2026-05-07 03:01 | 39.42400 | -98.55966 | 37146 ft | 522 kts | 95° |
| 2026-05-07 03:02 | 39.41882 | -98.46606 | 37140 ft | 523 kts | 95° |
| 2026-05-07 03:02 | 39.41357 | -98.37225 | 37140 ft | 523 kts | 95° |
| 2026-05-07 03:03 | 39.40827 | -98.27828 | 37134 ft | 525 kts | 96° |
| 2026-05-07 03:03 | 39.40270 | -98.18414 | 37129 ft | 526 kts | 96° |
| 2026-05-07 03:04 | 39.39729 | -98.09178 | 37129 ft | 527 kts | 96° |
| 2026-05-07 03:04 | 39.39172 | -97.99733 | 37127 ft | 527 kts | 96° |
| 2026-05-07 03:05 | 39.38603 | -97.90275 | 37132 ft | 529 kts | 97° |
| 2026-05-07 03:05 | 39.38016 | -97.80786 | 37130 ft | 530 kts | 97° |
| 2026-05-07 03:06 | 39.37428 | -97.71284 | 37126 ft | 531 kts | 97° |
| 2026-05-07 03:06 | 39.36835 | -97.61766 | 37126 ft | 532 kts | 97° |
| 2026-05-07 03:07 | 39.36232 | -97.52233 | 37119 ft | 533 kts | 97° |
| 2026-05-07 03:07 | 39.35606 | -97.42682 | 37119 ft | 534 kts | 97° |
| 2026-05-07 03:08 | 39.35017 | -97.33636 | 37123 ft | 535 kts | 97° |
| 2026-05-07 03:08 | 39.34401 | -97.24187 | 37103 ft | 535 kts | 98° |
| 2026-05-07 03:09 | 39.33746 | -97.14603 | 37116 ft | 536 kts | 98° |
| 2026-05-07 03:09 | 39.33099 | -97.04998 | 37119 ft | 537 kts | 98° |
| 2026-05-07 03:10 | 39.32444 | -96.95374 | 37127 ft | 538 kts | 98° |
| 2026-05-07 03:10 | 39.31774 | -96.85738 | 37131 ft | 540 kts | 98° |
| 2026-05-07 03:11 | 39.31100 | -96.76100 | 37137 ft | 541 kts | 98° |
| 2026-05-07 03:11 | 39.30410 | -96.66431 | 37134 ft | 542 kts | 98° |
| 2026-05-07 03:12 | 39.29714 | -96.56731 | 37135 ft | 543 kts | 98° |
| 2026-05-07 03:12 | 39.29023 | -96.47214 | 37116 ft | 544 kts | 99° |
| 2026-05-07 03:13 | 39.28310 | -96.37487 | 37113 ft | 545 kts | 99° |
| 2026-05-07 03:13 | 39.27586 | -96.27876 | 37114 ft | 546 kts | 99° |
| 2026-05-07 03:14 | 39.26856 | -96.18122 | 37116 ft | 547 kts | 99° |
| 2026-05-07 03:15 | 39.25748 | -96.03556 | 37114 ft | 548 kts | 100° |
| 2026-05-07 03:15 | 39.24985 | -95.93767 | 37114 ft | 549 kts | 100° |
| 2026-05-07 03:16 | 39.24219 | -95.83963 | 37120 ft | 550 kts | 100° |
| 2026-05-07 03:16 | 39.23445 | -95.74143 | 37121 ft | 550 kts | 100° |
| 2026-05-07 03:17 | 39.22664 | -95.64318 | 37117 ft | 551 kts | 100° |
| 2026-05-07 03:17 | 39.21860 | -95.54472 | 37084 ft | 552 kts | 101° |
| 2026-05-07 03:18 | 39.21057 | -95.44629 | 37115 ft | 553 kts | 101° |
| 2026-05-07 03:18 | 39.20274 | -95.35201 | 37122 ft | 554 kts | 101° |
| 2026-05-07 03:19 | 39.19456 | -95.25324 | 37128 ft | 555 kts | 101° |
| 2026-05-07 03:19 | 39.18615 | -95.15422 | 37132 ft | 556 kts | 101° |
| 2026-05-07 03:20 | 39.17773 | -95.05508 | 37132 ft | 557 kts | 101° |
| 2026-05-07 03:20 | 39.16931 | -94.95648 | 37114 ft | 558 kts | 101° |
| 2026-05-07 03:21 | 39.16061 | -94.85649 | 37115 ft | 559 kts | 102° |
| 2026-05-07 03:21 | 39.15183 | -94.75696 | 37119 ft | 560 kts | 102° |
| 2026-05-07 03:22 | 39.14313 | -94.65805 | 37131 ft | 561 kts | 102° |
| 2026-05-07 03:22 | 39.13415 | -94.55757 | 37120 ft | 561 kts | 102° |
| 2026-05-07 03:23 | 39.12508 | -94.45757 | 37127 ft | 562 kts | 102° |
| 2026-05-07 03:23 | 39.11599 | -94.35821 | 37131 ft | 563 kts | 102° |
| 2026-05-07 03:24 | 39.10682 | -94.25825 | 37137 ft | 564 kts | 102° |
| 2026-05-07 03:24 | 39.09751 | -94.15788 | 37117 ft | 565 kts | 103° |
| 2026-05-07 03:25 | 39.08425 | -94.05877 | 37127 ft | 560 kts | 109° |
| 2026-05-07 03:25 | 39.06790 | -93.96070 | 37132 ft | 561 kts | 109° |
| 2026-05-07 03:26 | 39.05172 | -93.86246 | 37099 ft | 561 kts | 109° |
| 2026-05-07 03:26 | 39.03554 | -93.76413 | 37124 ft | 563 kts | 110° |
| 2026-05-07 03:27 | 39.01951 | -93.66549 | 37126 ft | 564 kts | 109° |
| 2026-05-07 03:27 | 39.00344 | -93.56673 | 37127 ft | 565 kts | 110° |
| 2026-05-07 03:28 | 38.98719 | -93.46777 | 37133 ft | 566 kts | 110° |
| 2026-05-07 03:28 | 38.97363 | -93.38540 | 37140 ft | 567 kts | 110° |
| 2026-05-07 03:29 | 38.95722 | -93.28618 | 37144 ft | 568 kts | 110° |
| 2026-05-07 03:29 | 38.94069 | -93.18682 | 37143 ft | 569 kts | 110° |
| 2026-05-07 03:30 | 38.92402 | -93.08738 | 37139 ft | 570 kts | 110° |
| 2026-05-07 03:30 | 38.90756 | -92.98878 | 37118 ft | 571 kts | 110° |
| 2026-05-07 03:31 | 38.89106 | -92.88895 | 37118 ft | 572 kts | 110° |
| 2026-05-07 03:31 | 38.87426 | -92.78981 | 37135 ft | 572 kts | 111° |
| 2026-05-07 03:32 | 38.85712 | -92.69007 | 37101 ft | 573 kts | 111° |
| 2026-05-07 03:32 | 38.84006 | -92.59013 | 37113 ft | 574 kts | 112° |
| 2026-05-07 03:33 | 38.82277 | -92.49019 | 37118 ft | 575 kts | 112° |
| 2026-05-07 03:33 | 38.80533 | -92.38984 | 36751 ft | 579 kts | 112° |
| 2026-05-07 03:33 | 38.79659 | -92.33989 | 36110 ft | 571 kts | 112° |
| 2026-05-07 03:34 | 38.78787 | -92.29043 | 35494 ft | 565 kts | 113° |
| 2026-05-07 03:34 | 38.77923 | -92.24173 | 34884 ft | 560 kts | 113° |
| 2026-05-07 03:34 | 38.77062 | -92.19327 | 34282 ft | 555 kts | 114° |
| 2026-05-07 03:34 | 38.76208 | -92.14522 | 33617 ft | 551 kts | 114° |
| 2026-05-07 03:35 | 38.75343 | -92.09757 | 32958 ft | 546 kts | 113° |
| 2026-05-07 03:35 | 38.74490 | -92.05045 | 32315 ft | 541 kts | 113° |
| 2026-05-07 03:35 | 38.73644 | -92.00434 | 31711 ft | 536 kts | 113° |
| 2026-05-07 03:35 | 38.72786 | -91.95795 | 30693 ft | 541 kts | 112° |
| 2026-05-07 03:36 | 38.71949 | -91.91118 | 30057 ft | 536 kts | 111° |
| 2026-05-07 03:36 | 38.71180 | -91.86471 | 29265 ft | 532 kts | 110° |
| 2026-05-07 03:36 | 38.70413 | -91.81871 | 28573 ft | 525 kts | 110° |
| 2026-05-07 03:36 | 38.69646 | -91.77337 | 27906 ft | 518 kts | 110° |
| 2026-05-07 03:37 | 38.68969 | -91.72828 | 27253 ft | 515 kts | 102° |
| 2026-05-07 03:37 | 38.68839 | -91.68264 | 26630 ft | 512 kts | 91° |
| 2026-05-07 03:37 | 38.69032 | -91.63742 | 26034 ft | 506 kts | 88° |
| 2026-05-07 03:37 | 38.69252 | -91.59280 | 25453 ft | 498 kts | 89° |
| 2026-05-07 03:38 | 38.69355 | -91.54893 | 24887 ft | 489 kts | 92° |
| 2026-05-07 03:38 | 38.69344 | -91.50578 | 24326 ft | 482 kts | 93° |
| 2026-05-07 03:38 | 38.69322 | -91.46322 | 23765 ft | 475 kts | 92° |
| 2026-05-07 03:38 | 38.69292 | -91.42117 | 22946 ft | 472 kts | 92° |
| 2026-05-07 03:39 | 38.69287 | -91.37945 | 22265 ft | 465 kts | 91° |
| 2026-05-07 03:39 | 38.69320 | -91.33835 | 21603 ft | 459 kts | 91° |
| 2026-05-07 03:39 | 38.69337 | -91.30398 | 21053 ft | 454 kts | 91° |
| 2026-05-07 03:39 | 38.69345 | -91.26443 | 20427 ft | 448 kts | 91° |
| 2026-05-07 03:40 | 38.69353 | -91.22472 | 19810 ft | 443 kts | 91° |
| 2026-05-07 03:40 | 38.69381 | -91.18560 | 19204 ft | 438 kts | 89° |
| 2026-05-07 03:40 | 38.69486 | -91.15012 | 18655 ft | 433 kts | 88° |
| 2026-05-07 03:40 | 38.69633 | -91.11171 | 18022 ft | 429 kts | 88° |
| 2026-05-07 03:41 | 38.69777 | -91.07377 | 17353 ft | 425 kts | 88° |
| 2026-05-07 03:41 | 38.69884 | -91.03615 | 16695 ft | 421 kts | 89° |
| 2026-05-07 03:41 | 38.69980 | -90.99876 | 16051 ft | 418 kts | 89° |
| 2026-05-07 03:41 | 38.70067 | -90.96182 | 15457 ft | 413 kts | 89° |
| 2026-05-07 03:42 | 38.70154 | -90.92525 | 14871 ft | 409 kts | 89° |
| 2026-05-07 03:42 | 38.70240 | -90.88907 | 14323 ft | 404 kts | 89° |
| 2026-05-07 03:42 | 38.70322 | -90.85328 | 13791 ft | 399 kts | 89° |
| 2026-05-07 03:42 | 38.70401 | -90.81804 | 13207 ft | 394 kts | 89° |
| 2026-05-07 03:43 | 38.70478 | -90.78313 | 12634 ft | 389 kts | 89° |
| 2026-05-07 03:43 | 38.70556 | -90.74899 | 12064 ft | 379 kts | 89° |
| 2026-05-07 03:43 | 38.70632 | -90.71561 | 11507 ft | 370 kts | 88° |
| 2026-05-07 03:43 | 38.70722 | -90.68349 | 10968 ft | 362 kts | 87° |
| 2026-05-07 03:44 | 38.70853 | -90.65179 | 10483 ft | 352 kts | 86° |
| 2026-05-07 03:44 | 38.70991 | -90.62138 | 10170 ft | 337 kts | 86° |
| 2026-05-07 03:44 | 38.71122 | -90.59203 | 9830 ft | 324 kts | 86° |
| 2026-05-07 03:44 | 38.71248 | -90.56369 | 9474 ft | 313 kts | 85° |
| 2026-05-07 03:45 | 38.71348 | -90.53626 | 9120 ft | 304 kts | 90° |
| 2026-05-07 03:45 | 38.70846 | -90.51055 | 8763 ft | 296 kts | 116° |
| 2026-05-07 03:45 | 38.69834 | -90.48794 | 8397 ft | 289 kts | 124° |
| 2026-05-07 03:45 | 38.68718 | -90.46676 | 8023 ft | 285 kts | 125° |
| 2026-05-07 03:46 | 38.67601 | -90.44618 | 7649 ft | 281 kts | 125° |
| 2026-05-07 03:46 | 38.66507 | -90.42579 | 7272 ft | 277 kts | 124° |
| 2026-05-07 03:46 | 38.65460 | -90.40525 | 6887 ft | 274 kts | 122° |
| 2026-05-07 03:46 | 38.64462 | -90.38474 | 6524 ft | 270 kts | 122° |
| 2026-05-07 03:47 | 38.63456 | -90.36432 | 5968 ft | 272 kts | 122° |
| 2026-05-07 03:47 | 38.62446 | -90.34398 | 5496 ft | 269 kts | 121° |
| 2026-05-07 03:47 | 38.61455 | -90.32402 | 5239 ft | 260 kts | 121° |
| 2026-05-07 03:47 | 38.60517 | -90.30515 | 5160 ft | 243 kts | 121° |
| 2026-05-07 03:48 | 38.59629 | -90.28733 | 5002 ft | 234 kts | 121° |
| 2026-05-07 03:48 | 38.58759 | -90.26985 | 4733 ft | 233 kts | 121° |
| 2026-05-07 03:48 | 38.57928 | -90.25324 | 4454 ft | 231 kts | 121° |
| 2026-05-07 03:48 | 38.57062 | -90.23612 | 4156 ft | 230 kts | 121° |
| 2026-05-07 03:49 | 38.56199 | -90.21896 | 3843 ft | 229 kts | 118° |
| 2026-05-07 03:49 | 38.55839 | -90.19988 | 3528 ft | 219 kts | 78° |
| 2026-05-07 03:49 | 38.56479 | -90.18430 | 3454 ft | 195 kts | 39° |
| 2026-05-07 03:49 | 38.57477 | -90.17357 | 3273 ft | 184 kts | 35° |
| 2026-05-07 03:50 | 38.58492 | -90.16343 | 3126 ft | 185 kts | 34° |
| 2026-05-07 03:50 | 38.59514 | -90.15363 | 3060 ft | 183 kts | 34° |
| 2026-05-07 03:50 | 38.60397 | -90.14541 | 3032 ft | 184 kts | 32° |
| 2026-05-07 03:50 | 38.61355 | -90.13996 | 2988 ft | 180 kts | 4° |
| 2026-05-07 03:51 | 38.62531 | -90.14469 | 2997 ft | 182 kts | 334° |
| 2026-05-07 03:51 | 38.63656 | -90.15227 | 3006 ft | 184 kts | 332° |
| 2026-05-07 03:51 | 38.64637 | -90.15936 | 3011 ft | 185 kts | 331° |
| 2026-05-07 03:51 | 38.65567 | -90.17078 | 3002 ft | 191 kts | 301° |
| 2026-05-07 03:52 | 38.66215 | -90.18563 | 3004 ft | 192 kts | 303° |
| 2026-05-07 03:52 | 38.66924 | -90.20008 | 2998 ft | 192 kts | 304° |
| 2026-05-07 03:52 | 38.67628 | -90.21406 | 2994 ft | 182 kts | 305° |
| 2026-05-07 03:52 | 38.68287 | -90.22719 | 2739 ft | 162 kts | 305° |
| 2026-05-07 03:53 | 38.68828 | -90.23824 | 2492 ft | 132 kts | 306° |
| 2026-05-07 03:53 | 38.69301 | -90.24770 | 2310 ft | 128 kts | 307° |
| 2026-05-07 03:53 | 38.69796 | -90.25738 | 2162 ft | 134 kts | 307° |
| 2026-05-07 03:53 | 38.70312 | -90.26754 | 1998 ft | 136 kts | 307° |
| 2026-05-07 03:54 | 38.70813 | -90.27762 | 1805 ft | 133 kts | 306° |
| 2026-05-07 03:54 | 38.71303 | -90.28755 | 1600 ft | 131 kts | 306° |
| 2026-05-07 03:54 | 38.71802 | -90.29742 | 1398 ft | 134 kts | 305° |
| 2026-05-07 03:54 | 38.72303 | -90.30760 | 1285 ft | 135 kts | 303° |
| 2026-05-07 03:55 | 38.72800 | -90.31776 | 1054 ft | 136 kts | 302° |
| 2026-05-07 03:55 | 38.73276 | -90.32775 | 849 ft | 128 kts | 303° |
| 2026-05-07 03:55 | 38.73752 | -90.33750 | 692 ft | 127 kts | 303° |
| 2026-05-07 03:55 | 38.74192 | -90.34629 | 628 ft | 99 kts | 302° |
| 2026-05-07 03:56 | 38.74419 | -90.35088 | 612 ft | 36 kts | 302° |
| 2026-05-07 03:56 | 38.74498 | -90.35259 | 614 ft | 14 kts | 292° |
| 2026-05-07 03:56 | 38.74476 | -90.35356 | 618 ft | 12 kts | 218° |
| 2026-05-07 03:56 | 38.74413 | -90.35414 | 615 ft | 9 kts | 237° |
| 2026-05-07 03:57 | 38.74424 | -90.35493 | 620 ft | 11 kts | 299° |
| 2026-05-07 03:57 | 38.74456 | -90.35594 | 615 ft | 13 kts | 265° |
| 2026-05-07 03:57 | 38.74394 | -90.35637 | 618 ft | 14 kts | 179° |
| 2026-05-07 03:57 | 38.74274 | -90.35635 | 616 ft | 16 kts | 179° |
| 2026-05-07 03:58 | 38.74173 | -90.35651 | 619 ft | 11 kts | 222° |
| 2026-05-07 03:58 | 38.74178 | -90.35737 | 617 ft | 13 kts | 300° |
| 2026-05-07 03:58 | 38.74227 | -90.35838 | 615 ft | 13 kts | 302° |
| 2026-05-07 03:58 | 38.74281 | -90.35948 | 622 ft | 16 kts | 302° |
| 2026-05-07 03:59 | 38.74342 | -90.36072 | 625 ft | 11 kts | 302° |
| 2026-05-07 03:59 | 38.74345 | -90.36152 | 626 ft | 11 kts | 242° |
| 2026-05-07 03:59 | 38.74362 | -90.36255 | 620 ft | 10 kts | 297° |
| 2026-05-07 03:59 | 38.74362 | -90.36336 | 618 ft | 12 kts | 236° |
| 2026-05-07 04:00 | 38.74321 | -90.36407 | 624 ft | 9 kts | 233° |
| 2026-05-07 04:00 | 38.74294 | -90.36457 | 618 ft | 6 kts | 262° |
| 2026-05-07 04:00 | 38.74305 | -90.36494 | 620 ft | 4 kts | 302° |
| 2026-05-07 04:00 | 38.74310 | -90.36505 | 618 ft | 0 kts | 302° |